createdAt,value
2018-08-22T00:02:24.479Z,15.30
2018-08-22T00:04:51.998Z,15.30
2018-08-22T00:07:19.708Z,15.30
2018-08-22T00:09:47.231Z,15.30
2018-08-22T00:12:14.780Z,15.30
2018-08-22T00:14:42.290Z,15.40
2018-08-22T00:17:09.799Z,15.40
2018-08-22T00:19:37.326Z,15.40
2018-08-22T00:22:04.847Z,15.40
2018-08-22T00:24:32.374Z,15.30
2018-08-22T00:26:59.879Z,15.30
2018-08-22T00:29:27.425Z,15.30
2018-08-22T00:31:54.939Z,15.20
2018-08-22T00:34:22.447Z,15.20
2018-08-22T00:36:49.986Z,15.20
2018-08-22T00:39:17.502Z,15.10
2018-08-22T00:41:45.021Z,15.10
2018-08-22T00:44:12.539Z,15.10
2018-08-22T00:46:40.047Z,15.00
2018-08-22T00:49:07.574Z,15.00
2018-08-22T00:51:35.079Z,15.00
2018-08-22T00:54:02.579Z,15.10
2018-08-22T00:56:30.107Z,15.00
2018-08-22T00:58:57.619Z,15.00
2018-08-22T01:01:25.155Z,15.10
2018-08-22T01:03:52.663Z,15.10
2018-08-22T01:06:20.175Z,15.10
2018-08-22T01:08:47.687Z,15.00
2018-08-22T01:11:15.210Z,15.10
2018-08-22T01:13:42.731Z,15.10
2018-08-22T01:16:10.244Z,15.10
2018-08-22T01:18:37.766Z,15.10
2018-08-22T01:21:05.496Z,15.10
2018-08-22T01:23:33.022Z,15.00
2018-08-22T01:26:00.574Z,15.00
2018-08-22T01:28:28.091Z,14.90
2018-08-22T01:30:55.614Z,14.90
2018-08-22T01:33:23.127Z,14.80
2018-08-22T01:35:50.639Z,14.80
2018-08-22T01:38:18.147Z,14.80
2018-08-22T01:40:45.671Z,14.70
2018-08-22T01:43:13.194Z,14.70
2018-08-22T01:45:40.703Z,14.70
2018-08-22T01:48:08.221Z,14.60
2018-08-22T01:50:35.734Z,14.60
2018-08-22T01:53:03.279Z,14.60
2018-08-22T01:55:30.870Z,14.60
2018-08-22T01:57:58.391Z,14.50
2018-08-22T02:00:25.896Z,14.50
2018-08-22T02:02:53.435Z,14.40
2018-08-22T02:05:20.972Z,14.40
2018-08-22T02:07:48.502Z,14.40
2018-08-22T02:10:16.036Z,14.40
2018-08-22T02:12:43.562Z,14.40
2018-08-22T02:15:11.104Z,14.50
2018-08-22T02:17:38.630Z,14.50
2018-08-22T02:20:06.184Z,14.40
2018-08-22T02:22:33.730Z,14.40
2018-08-22T02:25:01.438Z,14.40
2018-08-22T02:27:28.930Z,14.40
2018-08-22T02:29:56.469Z,14.40
2018-08-22T02:32:24.008Z,14.30
2018-08-22T02:34:51.557Z,14.30
2018-08-22T02:37:19.702Z,14.20
2018-08-22T02:39:47.229Z,14.20
2018-08-22T02:42:14.767Z,14.20
2018-08-22T02:44:42.304Z,14.20
2018-08-22T02:47:09.855Z,14.20
2018-08-22T02:49:37.391Z,14.20
2018-08-22T02:52:04.938Z,14.20
2018-08-22T02:54:32.481Z,14.20
2018-08-22T02:57:00.047Z,14.20
2018-08-22T02:59:27.582Z,14.10
2018-08-22T03:01:55.135Z,14.10
2018-08-22T03:04:22.720Z,14.10
2018-08-22T03:06:50.242Z,14.10
2018-08-22T03:09:17.776Z,14.10
2018-08-22T03:11:45.298Z,14.00
2018-08-22T03:14:12.826Z,14.00
2018-08-22T03:16:40.375Z,14.10
2018-08-22T03:19:07.907Z,14.10
2018-08-22T03:21:35.440Z,14.00
2018-08-22T03:24:02.975Z,14.00
2018-08-22T03:26:30.528Z,14.00
2018-08-22T03:28:58.067Z,14.00
2018-08-22T03:31:25.587Z,14.00
2018-08-22T03:33:53.137Z,14.00
2018-08-22T03:36:20.692Z,14.00
2018-08-22T03:38:48.263Z,14.00
2018-08-22T03:41:15.802Z,13.90
2018-08-22T03:43:43.521Z,13.90
2018-08-22T03:46:11.047Z,13.90
2018-08-22T03:48:38.584Z,13.90
2018-08-22T03:51:06.137Z,13.90
2018-08-22T03:53:33.672Z,13.80
2018-08-22T03:56:01.199Z,13.80
2018-08-22T03:58:28.734Z,13.80
2018-08-22T04:00:56.263Z,13.80
2018-08-22T04:03:23.775Z,13.80
2018-08-22T04:05:51.299Z,13.80
2018-08-22T04:08:18.818Z,13.80
2018-08-22T04:10:46.332Z,13.90
2018-08-22T04:13:13.850Z,13.90
2018-08-22T04:15:41.370Z,13.90
2018-08-22T04:18:08.880Z,13.90
2018-08-22T04:20:36.390Z,13.90
2018-08-22T04:23:04.202Z,14.00
2018-08-22T04:25:31.721Z,14.00
2018-08-22T04:27:59.238Z,14.00
2018-08-22T04:30:26.758Z,14.10
2018-08-22T04:32:54.279Z,14.10
2018-08-22T04:35:21.844Z,14.20
2018-08-22T04:37:49.634Z,14.20
2018-08-22T04:40:17.199Z,14.20
2018-08-22T04:42:44.755Z,14.30
2018-08-22T04:45:12.271Z,14.30
2018-08-22T04:47:39.799Z,14.40
2018-08-22T04:50:07.435Z,14.40
2018-08-22T04:52:34.970Z,14.50
2018-08-22T04:55:02.491Z,14.50
2018-08-22T04:57:30.016Z,14.60
2018-08-22T04:59:57.522Z,14.70
2018-08-22T05:02:25.064Z,14.70
2018-08-22T05:04:52.588Z,14.90
2018-08-22T05:07:20.099Z,14.90
2018-08-22T05:09:47.611Z,15.00
2018-08-22T05:12:15.135Z,15.10
2018-08-22T05:14:42.686Z,15.20
2018-08-22T05:17:10.220Z,15.30
2018-08-22T05:19:37.736Z,15.40
2018-08-22T05:22:05.246Z,15.50
2018-08-22T05:24:32.772Z,15.60
2018-08-22T05:27:00.304Z,15.80
2018-08-22T05:29:27.890Z,15.90
2018-08-22T05:31:57.508Z,16.00
2018-08-22T05:34:25.562Z,16.20
2018-08-22T05:36:53.112Z,16.90
2018-08-22T05:39:20.622Z,17.60
2018-08-22T05:41:48.147Z,18.00
2018-08-22T05:44:15.671Z,18.10
2018-08-22T05:46:43.194Z,18.30
2018-08-22T05:49:10.754Z,18.50
2018-08-22T05:51:38.269Z,18.50
2018-08-22T05:54:05.829Z,19.00
2018-08-22T05:56:33.360Z,19.70
2018-08-22T05:59:00.870Z,20.50
2018-08-22T06:01:28.413Z,21.00
2018-08-22T06:03:55.930Z,21.00
2018-08-22T06:06:23.468Z,21.00
2018-08-22T06:08:50.986Z,21.60
2018-08-22T06:11:18.505Z,22.30
2018-08-22T06:13:46.027Z,22.50
2018-08-22T06:16:13.554Z,22.50
2018-08-22T06:18:41.094Z,22.20
2018-08-22T06:21:08.602Z,21.90
2018-08-22T06:23:36.126Z,21.70
2018-08-22T06:26:03.655Z,21.60
2018-08-22T06:28:31.178Z,21.50
2018-08-22T06:30:58.683Z,21.40
2018-08-22T06:33:26.218Z,21.30
2018-08-22T06:35:53.745Z,21.20
2018-08-22T06:38:21.272Z,21.20
2018-08-22T06:40:48.786Z,21.30
2018-08-22T06:43:16.311Z,21.30
2018-08-22T06:45:43.835Z,21.50
2018-08-22T06:48:11.354Z,21.70
2018-08-22T06:50:39.012Z,21.80
2018-08-22T06:53:06.662Z,21.90
2018-08-22T06:55:34.167Z,21.90
2018-08-22T06:58:01.679Z,21.90
2018-08-22T07:00:29.195Z,21.90
2018-08-22T07:02:56.732Z,21.90
2018-08-22T07:05:24.252Z,21.90
2018-08-22T07:07:51.789Z,21.90
2018-08-22T07:10:19.324Z,22.00
2018-08-22T07:12:46.839Z,22.10
2018-08-22T07:15:14.347Z,22.20
2018-08-22T07:17:41.876Z,22.30
2018-08-22T07:20:09.409Z,22.50
2018-08-22T07:22:36.922Z,22.70
2018-08-22T07:25:04.512Z,23.40
2018-08-22T07:27:32.060Z,24.30
2018-08-22T07:29:59.615Z,24.70
2018-08-22T07:32:27.156Z,24.80
2018-08-22T07:34:54.667Z,25.20
2018-08-22T07:37:22.194Z,25.70
2018-08-22T07:39:49.702Z,26.30
2018-08-22T07:42:17.207Z,26.80
2018-08-22T07:44:44.734Z,27.30
2018-08-22T07:47:12.283Z,27.80
2018-08-22T07:49:39.788Z,28.10
2018-08-22T07:52:07.609Z,28.50
2018-08-22T07:54:39.767Z,28.80
2018-08-22T07:57:07.648Z,29.10
2018-08-22T07:59:35.191Z,29.30
2018-08-22T08:02:02.829Z,29.40
2018-08-22T08:04:30.273Z,29.50
2018-08-22T08:06:57.836Z,29.70
2018-08-22T08:09:25.380Z,29.80
2018-08-22T08:11:52.879Z,30.00
2018-08-22T08:14:20.392Z,30.30
2018-08-22T08:16:47.919Z,30.50
2018-08-22T08:19:15.446Z,30.70
2018-08-22T08:21:42.961Z,30.90
2018-08-22T08:24:10.507Z,31.10
2018-08-22T08:26:38.026Z,31.20
2018-08-22T08:29:05.691Z,31.20
2018-08-22T08:31:33.210Z,31.30
2018-08-22T08:34:00.740Z,31.50
2018-08-22T08:36:28.397Z,31.60
2018-08-22T08:38:55.919Z,31.80
2018-08-22T08:41:23.422Z,31.90
2018-08-22T08:43:50.959Z,32.10
2018-08-22T08:46:18.487Z,32.50
2018-08-22T08:48:46.002Z,32.70
2018-08-22T08:51:13.541Z,32.90
2018-08-22T08:53:41.068Z,33.10
2018-08-22T08:56:08.575Z,33.10
2018-08-22T08:58:36.129Z,33.30
2018-08-22T09:01:03.644Z,33.60
2018-08-22T09:03:31.204Z,33.80
2018-08-22T09:05:58.732Z,33.90
2018-08-22T09:08:26.255Z,34.10
2018-08-22T09:10:53.784Z,34.40
2018-08-22T09:13:21.314Z,34.60
2018-08-22T09:15:48.821Z,34.80
2018-08-22T09:18:16.364Z,34.90
2018-08-22T09:20:43.915Z,34.90
2018-08-22T09:23:11.444Z,34.60
2018-08-22T09:25:38.959Z,34.60
2018-08-22T09:28:06.512Z,34.80
2018-08-22T09:30:34.016Z,34.90
2018-08-22T09:33:01.527Z,35.10
2018-08-22T09:35:29.431Z,35.20
2018-08-22T09:37:56.947Z,35.30
2018-08-22T09:40:24.475Z,35.40
2018-08-22T09:42:51.990Z,35.50
2018-08-22T09:45:19.511Z,35.60
2018-08-22T09:47:47.034Z,35.80
2018-08-22T09:50:14.575Z,35.90
2018-08-22T09:52:42.078Z,35.90
2018-08-22T09:55:09.594Z,36.10
2018-08-22T09:57:37.112Z,36.10
2018-08-22T10:00:05.832Z,36.20
2018-08-22T10:02:33.328Z,36.30
2018-08-22T10:05:00.879Z,36.40
2018-08-22T10:07:28.450Z,36.60
2018-08-22T10:09:55.970Z,36.60
2018-08-22T10:12:23.528Z,36.50
2018-08-22T10:14:51.089Z,36.30
2018-08-22T10:17:18.615Z,36.50
2018-08-22T10:19:46.172Z,36.70
2018-08-22T10:22:13.722Z,36.70
2018-08-22T10:24:41.263Z,36.60
2018-08-22T10:27:08.845Z,36.70
2018-08-22T10:29:36.367Z,36.90
2018-08-22T10:32:03.939Z,36.90
2018-08-22T10:34:31.704Z,37.00
2018-08-22T10:36:59.234Z,37.20
2018-08-22T10:39:26.795Z,37.40
2018-08-22T10:41:54.319Z,37.40
2018-08-22T10:44:21.896Z,37.50
2018-08-22T10:46:49.399Z,37.70
2018-08-22T10:49:16.946Z,37.70
2018-08-22T10:51:44.484Z,37.90
2018-08-22T10:54:12.041Z,37.90
2018-08-22T10:56:39.572Z,38.00
2018-08-22T10:59:07.117Z,37.90
2018-08-22T11:01:34.647Z,37.70
2018-08-22T11:04:02.176Z,37.80
2018-08-22T11:06:29.666Z,37.90
2018-08-22T11:08:57.190Z,37.90
2018-08-22T11:11:24.711Z,37.90
2018-08-22T11:13:52.256Z,38.10
2018-08-22T11:16:19.773Z,38.20
2018-08-22T11:18:47.274Z,38.30
2018-08-22T11:21:32.368Z,38.30
2018-08-22T11:24:17.443Z,38.30
2018-08-22T11:27:02.523Z,38.20
2018-08-22T11:29:47.651Z,38.20
2018-08-22T11:32:32.719Z,38.20
2018-08-22T11:34:59.017Z,38.20
2018-08-22T11:37:26.551Z,38.30
2018-08-22T11:39:54.079Z,38.40
2018-08-22T11:42:21.605Z,38.40
2018-08-22T11:44:49.145Z,38.60
2018-08-22T11:47:16.686Z,38.60
2018-08-22T11:49:44.223Z,38.60
2018-08-22T11:52:11.751Z,38.60
2018-08-22T11:54:46.172Z,38.60
2018-08-22T11:57:13.692Z,38.70
2018-08-22T11:59:41.229Z,38.60
2018-08-22T12:02:08.759Z,38.50
2018-08-22T12:04:36.291Z,38.30
2018-08-22T12:07:03.826Z,38.50
2018-08-22T12:09:31.354Z,38.50
2018-08-22T12:11:58.875Z,38.70
2018-08-22T12:14:26.412Z,38.90
2018-08-22T12:16:53.950Z,39.00
2018-08-22T12:19:21.482Z,39.00
2018-08-22T12:21:49.031Z,38.90
2018-08-22T12:24:16.551Z,38.50
2018-08-22T12:26:50.785Z,37.60
2018-08-22T12:29:18.299Z,36.90
2018-08-22T12:31:45.823Z,36.50
2018-08-22T12:34:13.340Z,36.20
2018-08-22T12:36:40.867Z,36.20
2018-08-22T12:39:08.401Z,36.40
2018-08-22T12:41:35.915Z,36.80
2018-08-22T12:44:03.435Z,37.40
2018-08-22T12:46:30.962Z,37.80
2018-08-22T12:48:58.471Z,37.90
2018-08-22T12:51:26.008Z,37.80
2018-08-22T12:53:53.530Z,37.90
2018-08-22T12:56:21.061Z,37.70
2018-08-22T12:58:48.596Z,37.30
2018-08-22T13:01:16.149Z,36.70
2018-08-22T13:03:43.679Z,36.10
2018-08-22T13:06:11.199Z,35.80
2018-08-22T13:08:38.724Z,35.50
2018-08-22T13:11:06.303Z,35.10
2018-08-22T13:13:33.808Z,34.80
2018-08-22T13:16:01.333Z,34.60
2018-08-22T13:18:28.876Z,34.50
2018-08-22T13:20:56.424Z,35.10
2018-08-22T13:23:23.943Z,36.00
2018-08-22T13:25:51.492Z,37.00
2018-08-22T13:28:19.014Z,37.20
2018-08-22T13:30:46.568Z,36.90
2018-08-22T13:33:14.103Z,36.50
2018-08-22T13:35:41.619Z,36.50
2018-08-22T13:38:09.138Z,36.70
2018-08-22T13:40:36.651Z,36.90
2018-08-22T13:43:04.472Z,36.90
2018-08-22T13:45:32.003Z,36.90
2018-08-22T13:47:59.526Z,37.20
2018-08-22T13:50:27.039Z,37.60
2018-08-22T13:52:54.575Z,38.00
2018-08-22T13:55:22.097Z,38.10
2018-08-22T13:57:49.653Z,38.30
2018-08-22T14:00:17.180Z,38.40
2018-08-22T14:02:44.731Z,38.20
2018-08-22T14:05:12.263Z,37.70
2018-08-22T14:07:39.803Z,37.30
2018-08-22T14:10:07.395Z,36.70
2018-08-22T14:12:34.946Z,36.00
2018-08-22T14:15:02.542Z,35.50
2018-08-22T14:17:30.895Z,35.20
2018-08-22T14:19:58.438Z,35.00
2018-08-22T14:22:26.032Z,34.80
2018-08-22T14:24:53.502Z,35.00
2018-08-22T14:27:21.051Z,35.30
2018-08-22T14:29:48.576Z,35.40
2018-08-22T14:32:16.107Z,35.00
2018-08-22T14:34:43.650Z,34.90
2018-08-22T14:37:11.202Z,35.30
2018-08-22T14:39:38.755Z,35.40
2018-08-22T14:42:06.307Z,35.50
2018-08-22T14:44:33.844Z,35.70
2018-08-22T14:47:01.383Z,35.90
2018-08-22T14:49:28.940Z,36.20
2018-08-22T14:51:56.483Z,36.50
2018-08-22T14:54:24.028Z,36.60
2018-08-22T14:56:51.601Z,36.80
2018-08-22T14:59:19.161Z,36.90
2018-08-22T15:01:46.707Z,36.90
2018-08-22T15:04:14.222Z,37.00
2018-08-22T15:06:41.736Z,37.00
2018-08-22T15:09:17.572Z,37.20
2018-08-22T15:11:45.234Z,37.30
2018-08-22T15:14:12.765Z,37.20
2018-08-22T15:16:40.329Z,37.20
2018-08-22T15:19:07.892Z,37.20
2018-08-22T15:21:35.411Z,37.10
2018-08-22T15:24:02.946Z,36.90
2018-08-22T15:26:30.505Z,36.70
2018-08-22T15:28:57.994Z,36.60
2018-08-22T15:31:25.515Z,36.50
2018-08-22T15:33:53.051Z,36.40
2018-08-22T15:36:20.814Z,36.30
2018-08-22T15:38:48.317Z,36.20
2018-08-22T15:41:16.230Z,36.00
2018-08-22T15:43:43.738Z,35.90
2018-08-22T15:46:11.276Z,35.80
2018-08-22T15:48:38.807Z,35.70
2018-08-22T15:51:06.334Z,35.60
2018-08-22T15:53:33.847Z,35.50
2018-08-22T15:56:01.376Z,35.50
2018-08-22T15:58:28.915Z,35.40
2018-08-22T16:00:56.447Z,35.30
2018-08-22T16:03:25.110Z,35.10
2018-08-22T16:05:53.687Z,34.80
2018-08-22T16:08:22.423Z,34.70
2018-08-22T16:10:49.928Z,34.70
2018-08-22T16:13:23.186Z,34.50
2018-08-22T16:15:52.682Z,34.20
2018-08-22T16:18:20.414Z,34.00
2018-08-22T16:20:55.311Z,33.70
2018-08-22T16:23:32.930Z,33.50
2018-08-22T16:26:01.503Z,33.30
2018-08-22T16:28:48.639Z,33.20
2018-08-22T16:31:16.384Z,33.10
2018-08-22T16:33:43.843Z,32.80
2018-08-22T16:36:18.206Z,32.70
2018-08-22T16:38:45.727Z,32.50
2018-08-22T16:41:13.257Z,32.30
2018-08-22T16:43:42.193Z,32.10
2018-08-22T16:46:11.996Z,32.00
2018-08-22T16:48:40.271Z,31.80
2018-08-22T16:51:07.798Z,31.60
2018-08-22T16:53:35.395Z,31.50
2018-08-22T16:56:02.963Z,31.30
2018-08-22T16:58:30.525Z,31.20
2018-08-22T17:00:58.073Z,31.00
2018-08-22T17:03:25.850Z,30.80
2018-08-22T17:06:03.276Z,30.70
2018-08-22T17:08:30.841Z,30.50
2018-08-22T17:11:01.420Z,30.40
2018-08-22T17:13:40.674Z,30.30
2018-08-22T17:16:08.224Z,30.10
2018-08-22T17:18:35.778Z,30.00
2018-08-22T17:21:03.323Z,29.80
2018-08-22T17:23:30.858Z,29.70
2018-08-22T17:25:58.395Z,29.40
2018-08-22T17:28:34.366Z,29.00
2018-08-22T17:31:02.479Z,28.70
2018-08-22T17:33:38.204Z,28.40
2018-08-22T17:36:09.502Z,28.10
2018-08-22T17:38:37.254Z,27.80
2018-08-22T17:41:04.999Z,27.50
2018-08-22T17:43:53.366Z,27.30
2018-08-22T17:46:22.079Z,27.10
2018-08-22T17:48:49.634Z,27.00
2018-08-22T17:51:17.319Z,26.70
2018-08-22T17:53:44.871Z,26.50
2018-08-22T17:56:12.412Z,26.30
2018-08-22T17:58:39.950Z,26.10
2018-08-22T18:01:07.503Z,25.80
2018-08-22T18:03:35.055Z,25.70
2018-08-22T18:06:02.591Z,25.50
2018-08-22T18:08:31.414Z,25.20
2018-08-22T18:10:58.963Z,25.10
2018-08-22T18:13:27.165Z,24.90
2018-08-22T18:15:54.870Z,24.80
2018-08-22T18:18:22.437Z,24.60
2018-08-22T18:20:50.687Z,24.40
2018-08-22T18:23:19.144Z,24.20
2018-08-22T18:25:52.705Z,24.10
2018-08-22T18:28:20.247Z,24.00
2018-08-22T18:30:54.595Z,23.90
2018-08-22T18:33:22.111Z,23.80
2018-08-22T18:35:49.647Z,23.70
2018-08-22T18:38:17.175Z,23.60
2018-08-22T18:41:01.886Z,23.60
2018-08-22T18:43:29.433Z,23.50
2018-08-22T18:46:02.380Z,23.30
2018-08-22T18:48:31.495Z,23.30
2018-08-22T18:50:59.372Z,23.20
2018-08-22T18:53:26.882Z,23.20
2018-08-22T18:56:11.222Z,23.10
2018-08-22T18:58:38.967Z,23.10
2018-08-22T19:01:06.707Z,23.00
2018-08-22T19:03:34.467Z,22.90
2018-08-22T19:06:02.139Z,22.90
2018-08-22T19:08:29.670Z,22.90
2018-08-22T19:10:57.269Z,22.80
2018-08-22T19:13:25.530Z,22.70
2018-08-22T19:15:58.314Z,22.70
2018-08-22T19:18:26.071Z,22.60
2018-08-22T19:20:56.526Z,22.60
2018-08-22T19:23:24.079Z,22.60
2018-08-22T19:25:52.640Z,22.60
2018-08-22T19:28:20.100Z,22.50
2018-08-22T19:30:47.893Z,22.40
2018-08-22T19:33:16.870Z,22.30
2018-08-22T19:35:44.855Z,22.30
2018-08-22T19:38:16.336Z,22.20
2018-08-22T19:40:43.886Z,22.20
2018-08-22T19:43:11.512Z,22.10
2018-08-22T19:45:39.054Z,22.00
2018-08-22T19:48:13.366Z,22.00
2018-08-22T19:50:40.922Z,21.90
2018-08-22T19:53:08.451Z,21.90
2018-08-22T19:55:37.094Z,21.90
2018-08-22T19:58:05.090Z,21.90
2018-08-22T20:00:32.649Z,21.80
2018-08-22T20:03:00.210Z,21.80
2018-08-22T20:05:48.843Z,21.70
2018-08-22T20:08:16.414Z,21.60
2018-08-22T20:10:43.972Z,21.60
2018-08-22T20:13:11.517Z,21.50
2018-08-22T20:15:39.059Z,21.50
2018-08-22T20:18:13.343Z,21.40
2018-08-22T20:20:40.879Z,21.40
2018-08-22T20:23:08.480Z,21.30
2018-08-22T20:25:35.980Z,21.20
2018-08-22T20:28:03.538Z,21.10
2018-08-22T20:30:31.120Z,21.10
2018-08-22T20:33:04.543Z,21.10
2018-08-22T20:35:35.350Z,21.10
2018-08-22T20:38:04.435Z,21.00
2018-08-22T20:40:32.011Z,20.90
2018-08-22T20:42:59.587Z,20.90
2018-08-22T20:45:42.204Z,20.80
2018-08-22T20:48:10.645Z,20.80
2018-08-22T20:50:39.438Z,20.70
2018-08-22T20:53:08.315Z,20.60
2018-08-22T20:55:35.877Z,20.60
2018-08-22T20:58:03.849Z,20.60
2018-08-22T21:00:33.798Z,20.50
2018-08-22T21:03:01.443Z,20.50
2018-08-22T21:05:28.922Z,20.40
2018-08-22T21:07:56.450Z,20.50
2018-08-22T21:10:23.983Z,20.50
2018-08-22T21:12:51.764Z,20.50
2018-08-22T21:15:19.290Z,20.60
2018-08-22T21:17:46.847Z,20.50
2018-08-22T21:20:19.100Z,20.50
2018-08-22T21:22:46.783Z,20.40
2018-08-22T21:25:15.924Z,20.40
2018-08-22T21:27:43.684Z,20.30
2018-08-22T21:30:11.696Z,20.30
2018-08-22T21:32:39.195Z,20.20
2018-08-22T21:35:13.758Z,20.10
2018-08-22T21:37:41.279Z,20.10
2018-08-22T21:40:08.812Z,20.10
2018-08-22T21:42:36.340Z,20.10
2018-08-22T21:45:03.878Z,20.00
2018-08-22T21:47:31.395Z,19.90
2018-08-22T21:49:58.929Z,19.90
2018-08-22T21:52:52.896Z,19.80
2018-08-22T21:55:25.055Z,19.80
2018-08-22T21:57:52.590Z,19.70
2018-08-22T22:00:20.304Z,19.60
2018-08-22T22:02:47.895Z,19.50
2018-08-22T22:05:15.463Z,19.50
2018-08-22T22:07:43.015Z,19.40
2018-08-22T22:10:12.061Z,19.30
2018-08-22T22:12:40.225Z,19.30
2018-08-22T22:15:12.987Z,19.20
2018-08-22T22:17:41.327Z,19.10
2018-08-22T22:20:08.887Z,19.10
2018-08-22T22:22:36.457Z,19.00
2018-08-22T22:25:05.212Z,19.00
2018-08-22T22:27:32.770Z,19.00
2018-08-22T22:30:02.871Z,18.90
2018-08-22T22:32:31.147Z,18.90
2018-08-22T22:34:58.671Z,18.80
2018-08-22T22:37:26.250Z,18.80
2018-08-22T22:39:53.778Z,18.80
2018-08-22T22:42:25.026Z,18.70
2018-08-22T22:44:53.660Z,18.70
2018-08-22T22:47:27.006Z,18.60
2018-08-22T22:49:54.972Z,18.60
2018-08-22T22:52:28.326Z,18.60
2018-08-22T22:54:57.103Z,18.60
2018-08-22T22:57:24.872Z,18.50
2018-08-22T22:59:52.954Z,18.50
2018-08-22T23:02:23.175Z,18.50
2018-08-22T23:04:51.642Z,18.50
2018-08-22T23:07:22.074Z,18.40
2018-08-22T23:09:52.759Z,18.40
2018-08-22T23:12:26.033Z,18.30
2018-08-22T23:14:54.674Z,18.30
2018-08-22T23:17:22.231Z,18.30
2018-08-22T23:20:02.158Z,18.30
2018-08-22T23:22:29.663Z,18.30
2018-08-22T23:24:57.184Z,18.30
2018-08-22T23:27:24.717Z,18.20
2018-08-22T23:29:52.256Z,18.20
2018-08-22T23:32:19.775Z,18.20
2018-08-22T23:34:47.296Z,18.10
2018-08-22T23:37:14.811Z,18.10
2018-08-22T23:39:42.321Z,18.10
2018-08-22T23:42:09.844Z,18.00
2018-08-22T23:44:42.087Z,18.00
2018-08-22T23:47:09.604Z,17.90
2018-08-22T23:49:41.748Z,17.90
2018-08-22T23:52:09.278Z,17.90
2018-08-22T23:54:41.414Z,17.90
2018-08-22T23:57:09.007Z,17.90
2018-08-22T23:59:36.512Z,17.90
